Wind van: 21-09-2018 07:00 tot: 10:00 waarschuwing voor: Wind niveau: Geel info button
Plaatselijk zware windstoten rond 75 km/uur.Kans op windstoten.Verkeer en buitenactiviteiten kunnen hinder ondervinden.Volg weerberichten en waarschuwingen.


Notice: Undefined offset: 5 in /home/meteosle/domains/meteo-sleen.nl/public_html/weather2/metar/metarDisplay.php on line 75

Notice: Undefined offset: 6 in /home/meteosle/domains/meteo-sleen.nl/public_html/weather2/metar/metarDisplay.php on line 75

METAR rapporten vliegvelden

   
EBAW - Antwerp
Gewijzigd: 21-09-2018 10:20
Licht bewolkt  
Licht bewolkt  
   Wind: Westen 22.2 km/h
Wind: Westen 22.2 km/h
Temperatuur: 16°C
Dauwpunt: 12°C
Vochtigheid: 77%
Barometer: 1006 hPa
Bewolking: Licht bewolkt
Zicht: meer dan 10 km
Bewolking: Licht bewolkt 2000 ft
EBAW 210820Z 26012KT 210V290 9999 FEW020 16/12 Q1006 RERA TEMPO 21018G32KT
EBLG - Liège
Gewijzigd: 21-09-2018 10:20
Wat regen mogelijk, Grotendeels bewolkt  
Wat regen mogelijk, Grotendeels bewolkt  
   Wind: WZW 31.5 km/h
Wind: WZW 31.5 km/h
Temperatuur: 13°C
Dauwpunt: 11°C
Vochtigheid: 88%
Barometer: 1008 hPa
Bewolking: Grotendeels bewolkt
Zicht: meer dan 10 km
Bewolking: Licht bewolkt 1200 ft,
Grotendeels bewolkt 3700 ft
EBLG 210820Z 25017KT 9999 -RA FEW012 BKN037 13/11 Q1008 TEMPO 23025G35KT 2500 RA BKN010
EBCV - Mons/Bergen
Gewijzigd: 20-09-2018 16:25
Verouderd
Licht bewolkt  
Licht bewolkt  
   Wind: Zuiden 25.9 km/h
Wind: Zuiden 25.9 km/h
Temperatuur: 24°C
Dauwpunt: 13°C
Vochtigheid: 50%
Barometer: 1014 hPa
Bewolking: Licht bewolkt
Zicht: meer dan 10 km
Bewolking: Licht bewolkt 21000 ft
EBCV 201425Z AUTO 19014KT 9999 FEW210/// 24/13 Q1014 BLU
EHBK - Maastricht
Gewijzigd: 21-09-2018 10:25
Light Showers, Regen, Bewolking  
Light Showers, Regen, Bewolking  
   Wind: WZW 16.7 km/h
Wind: WZW 16.7 km/h
Temperatuur: 13°C
Dauwpunt: 12°C
Vochtigheid: 94%
Barometer: 1007 hPa
Bewolking: Bewolking
Zicht: 9 km
Bewolking: Licht bewolkt 1000 ft,
Gedeeltelijk bewolkt 1500 ft,
Bewolking 3500 ft
EHBK 210825Z AUTO 25009KT 210V310 9000 -SHRA FEW010 SCT015CB OVC035 13/12 Q1007 RERA BECMG 24020G30KT BKN020
EHAM - Schiphol
Gewijzigd: 21-09-2018 10:25
Gedeeltelijk bewolkt  
Gedeeltelijk bewolkt  
   Wind: Westen 42.6 km/h
Wind: Westen 42.6 km/h
Temperatuur: 15°C
Dauwpunt: 10°C
Vochtigheid: 72%
Barometer: 1002 hPa
Bewolking: Gedeeltelijk bewolkt
Zicht: meer dan 10 km
Bewolking: Gedeeltelijk bewolkt 2800 ft
EHAM 210825Z 27023KT 9999 SCT028 15/10 Q1002 NOSIG
EHGG - Eelde
Gewijzigd: 21-09-2018 10:25
Licht bewolkt  
Licht bewolkt  
   Wind: WZW 33.3 km/h
Wind: WZW 33.3 km/h
Temperatuur: 15°C
Dauwpunt: 12°C
Vochtigheid: 82%
Barometer: 1000 hPa
Bewolking: Licht bewolkt
Zicht: meer dan 10 km
Bewolking: Licht bewolkt 3000 ft
EHGG 210825Z AUTO 24018KT 210V270 9999 FEW030 15/12 Q1000 TEMPO 24020G30KT

Script ontwikkeld door  Saratoga-weather.org Aangepast voor de template door  Weerstation Leuven

U vindt ons ook hier:

Het Weer Aktueel

UK Metoffice

European Weather Network

Weather Underground

Benelux Weer Netwerk

AWEKAS

Citizen Weather Observer Program (CWOP)

Apparatuur in gebruik:

Weerstation
Davis VP2

Weerprogramma
consoleWD

Weercomputer
RaspberryPI

Webleverancier
Deziweb

Davis VP2

consoleWD

RaspberryPI

Deziweb